createdAt,value
2019-03-19T00:03:25.356Z,4.17
2019-03-19T00:07:27.739Z,4.50
2019-03-19T00:11:30.006Z,3.53
2019-03-19T00:15:33.181Z,6.73
2019-03-19T00:19:35.425Z,1.83
2019-03-19T00:23:37.770Z,3.60
2019-03-19T00:27:40.043Z,2.20
2019-03-19T00:31:42.191Z,5.63
2019-03-19T00:35:44.423Z,4.37
2019-03-19T00:39:48.830Z,2.23
2019-03-19T00:43:51.285Z,3.97
2019-03-19T00:47:53.463Z,2.77
2019-03-19T00:51:55.847Z,5.43
2019-03-19T00:55:58.027Z,3.40
2019-03-19T01:00:00.435Z,5.97
2019-03-19T01:04:02.654Z,4.47
2019-03-19T01:08:04.886Z,4.27
2019-03-19T01:12:07.316Z,3.70
2019-03-19T01:16:09.886Z,4.73
2019-03-19T01:20:13.140Z,3.23
2019-03-19T01:24:16.449Z,5.50
2019-03-19T01:28:18.648Z,5.40
2019-03-19T01:32:20.959Z,4.60
2019-03-19T01:36:23.112Z,6.20
2019-03-19T01:40:25.685Z,8.53
2019-03-19T01:44:27.939Z,6.87
2019-03-19T01:48:30.147Z,8.03
2019-03-19T01:52:32.304Z,6.43
2019-03-19T01:56:34.723Z,14.70
2019-03-19T02:00:36.905Z,11.47
2019-03-19T02:04:39.348Z,7.13
2019-03-19T02:08:41.570Z,11.10
2019-03-19T02:12:43.999Z,9.73
2019-03-19T02:16:47.082Z,29.63
2019-03-19T02:20:49.678Z,9.47
2019-03-19T02:24:51.837Z,9.17
2019-03-19T02:28:54.079Z,8.47
2019-03-19T02:32:56.282Z,13.70
2019-03-19T02:36:59.071Z,12.47
2019-03-19T02:41:01.396Z,12.30
2019-03-19T02:45:03.630Z,10.67
2019-03-19T02:49:05.796Z,8.57
2019-03-19T02:53:08.150Z,10.10
2019-03-19T02:57:10.351Z,11.33
2019-03-19T03:01:12.675Z,11.33
2019-03-19T03:05:15.164Z,13.30
2019-03-19T03:09:17.663Z,11.20
2019-03-19T03:13:19.877Z,12.87
2019-03-19T03:17:22.108Z,12.90
2019-03-19T03:21:24.269Z,15.10
2019-03-19T03:25:26.612Z,11.87
2019-03-19T03:29:28.911Z,11.10
2019-03-19T03:33:31.253Z,11.03
2019-03-19T03:37:34.609Z,10.83
2019-03-19T03:41:38.296Z,9.90
2019-03-19T03:45:40.473Z,14.70
2019-03-19T03:49:42.688Z,16.77
2019-03-19T03:53:44.850Z,12.70
2019-03-19T03:57:47.296Z,14.37
2019-03-19T04:01:49.465Z,11.83
2019-03-19T04:05:51.947Z,11.93
2019-03-19T04:09:54.123Z,8.83
2019-03-19T04:13:56.991Z,10.07
2019-03-19T04:17:59.216Z,11.83
2019-03-19T04:22:01.580Z,10.93
2019-03-19T04:26:03.914Z,7.80
2019-03-19T04:30:08.543Z,9.27
2019-03-19T04:34:10.739Z,5.30
2019-03-19T04:38:13.178Z,3.97
2019-03-19T04:42:15.355Z,5.60
2019-03-19T04:46:17.603Z,6.97
2019-03-19T04:50:19.899Z,7.63
2019-03-19T04:54:23.139Z,4.93
2019-03-19T04:58:25.305Z,4.27
2019-03-19T05:02:27.543Z,3.37
2019-03-19T05:06:29.722Z,5.07
2019-03-19T05:10:32.026Z,4.33
2019-03-19T05:14:34.505Z,5.20
2019-03-19T05:18:36.831Z,3.37
2019-03-19T05:22:39.018Z,4.73
2019-03-19T05:26:42.564Z,2.43
2019-03-19T05:30:44.742Z,5.00
2019-03-19T05:34:46.998Z,3.03
2019-03-19T05:38:49.221Z,4.33
2019-03-19T05:42:51.467Z,3.20
2019-03-19T05:46:53.683Z,6.40
2019-03-19T05:50:55.942Z,3.27
2019-03-19T05:54:58.153Z,3.40
2019-03-19T05:59:01.105Z,3.10
2019-03-19T06:03:03.600Z,3.40
2019-03-19T06:07:06.422Z,3.53
2019-03-19T06:11:08.819Z,3.70
2019-03-19T06:15:11.839Z,6.93
2019-03-19T06:19:14.357Z,3.60
2019-03-19T06:23:16.810Z,6.17
2019-03-19T06:27:19.160Z,3.90
2019-03-19T06:31:21.541Z,5.40
2019-03-19T06:35:23.991Z,3.33
2019-03-19T06:39:26.672Z,4.20
2019-03-19T06:43:29.278Z,2.70
2019-03-19T06:47:31.954Z,2.77
2019-03-19T06:51:34.589Z,3.00
2019-03-19T06:55:37.443Z,2.27
2019-03-19T06:59:40.012Z,1.40
2019-03-19T07:03:42.908Z,2.63
2019-03-19T07:07:45.650Z,1.70
2019-03-19T07:11:48.177Z,3.00
2019-03-19T07:15:52.122Z,3.23
2019-03-19T07:19:54.374Z,2.00
2019-03-19T07:23:56.543Z,2.67
2019-03-19T07:27:59.101Z,1.53
2019-03-19T07:32:01.332Z,1.30
2019-03-19T07:36:06.152Z,3.43
2019-03-19T07:40:09.020Z,4.27
2019-03-19T07:44:12.272Z,2.53
2019-03-19T07:48:14.476Z,1.97
2019-03-19T07:52:17.244Z,2.80
2019-03-19T07:56:19.445Z,1.70
2019-03-19T08:00:22.164Z,2.40
2019-03-19T08:04:24.938Z,2.20
2019-03-19T08:08:27.862Z,3.30
2019-03-19T08:12:29.998Z,1.60
2019-03-19T08:16:32.467Z,1.73
2019-03-19T08:20:34.659Z,1.47
2019-03-19T08:24:37.045Z,1.60
2019-03-19T08:28:39.218Z,1.30
2019-03-19T08:32:41.518Z,2.03
2019-03-19T08:36:43.728Z,1.33
2019-03-19T08:40:46.042Z,3.07
2019-03-19T08:44:49.378Z,2.27
2019-03-19T08:48:51.806Z,2.03
2019-03-19T08:52:55.453Z,1.80
2019-03-19T08:56:58.176Z,2.37
2019-03-19T09:01:02.002Z,2.63
2019-03-19T09:05:04.388Z,2.30
2019-03-19T09:09:09.458Z,2.30
2019-03-19T09:13:12.028Z,1.70
2019-03-19T09:17:14.484Z,3.00
2019-03-19T09:21:17.215Z,1.97
2019-03-19T09:25:19.433Z,1.20
2019-03-19T09:29:22.090Z,1.53
2019-03-19T09:33:24.463Z,1.60
2019-03-19T09:37:27.171Z,1.00
2019-03-19T09:41:29.624Z,1.07
2019-03-19T09:45:32.229Z,1.03
2019-03-19T09:49:34.436Z,2.13
2019-03-19T09:53:36.896Z,2.93
2019-03-19T09:57:39.135Z,1.10
2019-03-19T10:01:41.714Z,1.50
2019-03-19T10:05:44.185Z,0.70
2019-03-19T10:09:46.745Z,1.13
2019-03-19T10:13:49.094Z,1.30
2019-03-19T10:17:51.800Z,1.73
2019-03-19T10:21:54.100Z,0.80
2019-03-19T10:25:56.775Z,1.87
2019-03-19T10:29:59.246Z,0.43
2019-03-19T10:34:01.519Z,0.97
2019-03-19T10:38:03.998Z,0.30
2019-03-19T10:42:06.757Z,0.37
2019-03-19T10:46:09.176Z,0.50
2019-03-19T10:50:19.985Z,0.60
2019-03-19T10:54:22.168Z,0.93
2019-03-19T10:58:24.564Z,0.60
2019-03-19T11:02:26.790Z,1.03
2019-03-19T11:06:29.033Z,1.13
2019-03-19T11:10:34.287Z,1.23
2019-03-19T11:14:36.711Z,1.10
2019-03-19T11:18:39.461Z,0.97
2019-03-19T11:22:41.780Z,1.20
2019-03-19T11:26:43.990Z,1.13
2019-03-19T11:30:46.350Z,1.30
2019-03-19T11:34:49.463Z,1.17
2019-03-19T11:38:51.737Z,1.33
2019-03-19T11:42:54.070Z,1.17
2019-03-19T11:46:56.433Z,0.80
2019-03-19T11:50:58.725Z,0.40
2019-03-19T11:55:01.171Z,0.50
2019-03-19T11:59:04.120Z,0.40
2019-03-19T12:03:12.651Z,0.40
2019-03-19T12:07:11.033Z,0.40
2019-03-19T12:11:15.010Z,0.30
2019-03-19T12:15:17.574Z,0.33
2019-03-19T12:19:21.164Z,0.30
2019-03-19T12:23:27.224Z,0.30
2019-03-19T12:27:29.528Z,0.20
2019-03-19T12:31:34.174Z,0.50
2019-03-19T12:35:36.460Z,1.13
2019-03-19T12:39:38.673Z,0.30
2019-03-19T12:43:41.080Z,0.40
2019-03-19T12:47:43.395Z,0.33
2019-03-19T12:51:45.754Z,0.40
2019-03-19T12:55:48.105Z,0.47
2019-03-19T12:59:50.610Z,0.53
2019-03-19T13:03:52.784Z,0.30
2019-03-19T13:07:55.105Z,0.30
2019-03-19T13:11:57.299Z,0.40
2019-03-19T13:15:59.625Z,1.63
2019-03-19T13:20:02.163Z,0.30
2019-03-19T13:24:05.803Z,0.37
2019-03-19T13:28:09.311Z,0.40
2019-03-19T13:32:11.577Z,0.73
2019-03-19T13:36:13.861Z,0.30
2019-03-19T13:40:17.334Z,0.87
2019-03-19T13:44:19.562Z,0.30
2019-03-19T13:48:21.821Z,0.40
2019-03-19T13:52:24.024Z,0.33
2019-03-19T13:56:26.546Z,0.30
2019-03-19T14:00:28.769Z,0.77
2019-03-19T14:04:32.090Z,0.40
2019-03-19T14:08:34.264Z,0.30
2019-03-19T14:12:36.746Z,1.30
2019-03-19T14:16:39.031Z,0.40
2019-03-19T14:20:43.048Z,0.40
2019-03-19T14:24:45.320Z,0.30
2019-03-19T14:28:47.889Z,0.60
2019-03-19T14:32:50.074Z,1.33
2019-03-19T14:36:52.746Z,1.17
2019-03-19T14:40:54.961Z,0.33
2019-03-19T14:44:57.284Z,0.40
2019-03-19T14:48:59.469Z,0.50
2019-03-19T14:53:01.879Z,0.20
2019-03-19T14:57:04.089Z,0.30
2019-03-19T15:01:06.375Z,0.53
2019-03-19T15:05:09.263Z,0.30
2019-03-19T15:09:11.652Z,0.27
2019-03-19T15:13:13.890Z,0.10
2019-03-19T15:17:16.214Z,0.33
2019-03-19T15:21:18.431Z,0.20
2019-03-19T15:25:22.933Z,0.40
2019-03-19T15:29:25.514Z,0.40
2019-03-19T15:33:27.878Z,0.53
2019-03-19T15:37:31.481Z,0.80
2019-03-19T15:41:33.801Z,1.03
2019-03-19T15:45:36.018Z,1.10
2019-03-19T15:49:38.729Z,1.37
2019-03-19T15:53:40.988Z,1.03
2019-03-19T15:57:43.578Z,0.97
2019-03-19T16:01:45.863Z,3.03
2019-03-19T16:05:48.117Z,1.70
2019-03-19T16:09:50.351Z,0.80
2019-03-19T16:13:52.647Z,2.03
2019-03-19T16:17:54.958Z,2.20
2019-03-19T16:21:57.352Z,2.23
2019-03-19T16:26:01.277Z,3.00
2019-03-19T16:30:04.321Z,3.30
2019-03-19T16:34:11.644Z,3.77
2019-03-19T16:38:15.039Z,5.30
2019-03-19T16:42:17.517Z,4.50
2019-03-19T16:46:19.806Z,4.93
2019-03-19T16:50:22.184Z,10.57
2019-03-19T16:54:24.697Z,5.67
2019-03-19T16:58:26.922Z,6.63
2019-03-19T17:02:29.555Z,6.00
2019-03-19T17:06:32.160Z,7.10
2019-03-19T17:10:35.543Z,5.70
2019-03-19T17:14:37.785Z,7.63
2019-03-19T17:18:40.066Z,7.17
2019-03-19T17:22:42.389Z,8.87
2019-03-19T17:26:44.820Z,7.97
2019-03-19T17:30:47.446Z,7.80
2019-03-19T17:34:49.967Z,7.77
2019-03-19T17:38:52.175Z,8.53
2019-03-19T17:42:54.777Z,6.70
2019-03-19T17:46:56.998Z,7.07
2019-03-19T17:50:59.355Z,6.43
2019-03-19T17:55:02.759Z,6.97
2019-03-19T17:59:08.697Z,6.47
2019-03-19T18:03:11.982Z,5.77
2019-03-19T18:07:14.497Z,7.40
2019-03-19T18:11:17.157Z,5.67
2019-03-19T18:15:19.802Z,7.27
2019-03-19T18:19:22.376Z,7.40
2019-03-19T18:23:24.791Z,7.83
2019-03-19T18:27:27.775Z,7.60
2019-03-19T18:31:31.288Z,6.87
2019-03-19T18:35:34.128Z,6.80
2019-03-19T18:39:36.569Z,6.13
2019-03-19T18:43:39.067Z,9.30
2019-03-19T18:47:43.251Z,6.47
2019-03-19T18:51:45.866Z,6.70
2019-03-19T18:55:49.386Z,5.87
2019-03-19T18:59:51.976Z,7.47
2019-03-19T19:03:54.935Z,6.73
2019-03-19T19:07:57.255Z,6.80
2019-03-19T19:11:59.636Z,7.10
2019-03-19T19:16:02.435Z,6.37
2019-03-19T19:20:05.294Z,5.93
2019-03-19T19:24:07.706Z,8.73
2019-03-19T19:28:10.375Z,7.23
2019-03-19T19:32:12.592Z,6.73
2019-03-19T19:36:15.276Z,7.27
2019-03-19T19:40:17.705Z,8.77
2019-03-19T19:44:20.357Z,8.30
2019-03-19T19:48:23.894Z,7.37
2019-03-19T19:52:28.331Z,7.80
2019-03-19T19:56:30.770Z,6.40
2019-03-19T20:00:33.506Z,6.43
2019-03-19T20:04:36.011Z,6.20
2019-03-19T20:08:38.838Z,6.97
2019-03-19T20:12:41.561Z,6.00
2019-03-19T20:16:44.377Z,7.80
2019-03-19T20:20:46.974Z,7.77
2019-03-19T20:24:49.580Z,5.63
2019-03-19T20:28:52.319Z,8.70
2019-03-19T20:32:54.886Z,8.20
2019-03-19T20:36:57.574Z,8.97
2019-03-19T20:41:01.677Z,7.53
2019-03-19T20:45:04.335Z,8.03
2019-03-19T20:49:07.118Z,7.40
2019-03-19T20:53:09.714Z,7.60
2019-03-19T20:57:14.872Z,8.00
2019-03-19T21:01:17.517Z,8.00
2019-03-19T21:05:20.174Z,8.23
2019-03-19T21:09:22.732Z,8.07
2019-03-19T21:13:25.258Z,6.47
2019-03-19T21:17:27.790Z,7.40
2019-03-19T21:21:30.453Z,8.10
2019-03-19T21:25:32.938Z,7.73
2019-03-19T21:29:35.502Z,6.27
2019-03-19T21:33:38.226Z,9.30
2019-03-19T21:37:40.912Z,8.83
2019-03-19T21:41:43.589Z,9.00
2019-03-19T21:45:46.238Z,7.77
2019-03-19T21:49:49.083Z,6.97
2019-03-19T21:53:51.816Z,6.37
2019-03-19T21:57:54.355Z,6.00
2019-03-19T22:01:59.256Z,8.40
2019-03-19T22:06:01.670Z,5.90
2019-03-19T22:10:04.759Z,6.63
2019-03-19T22:14:07.579Z,6.37
2019-03-19T22:18:10.737Z,5.97
2019-03-19T22:22:13.321Z,7.00
2019-03-19T22:26:16.008Z,7.27
2019-03-19T22:30:18.523Z,6.43
2019-03-19T22:34:21.328Z,7.63
2019-03-19T22:38:23.957Z,8.50
2019-03-19T22:42:28.001Z,7.20
2019-03-19T22:46:30.649Z,6.80
2019-03-19T22:50:33.311Z,7.10
2019-03-19T22:54:35.739Z,6.40
2019-03-19T22:58:38.409Z,8.13
2019-03-19T23:02:40.800Z,6.63
2019-03-19T23:06:43.440Z,5.30
2019-03-19T23:10:45.930Z,8.07
2019-03-19T23:14:48.536Z,5.03
2019-03-19T23:18:51.029Z,5.50
2019-03-19T23:22:53.512Z,6.03
2019-03-19T23:26:56.211Z,6.07
2019-03-19T23:30:58.890Z,5.27
2019-03-19T23:35:01.498Z,7.63
2019-03-19T23:39:05.876Z,5.00
2019-03-19T23:43:08.551Z,5.57
2019-03-19T23:47:11.213Z,6.53
2019-03-19T23:51:13.602Z,7.67
2019-03-19T23:55:16.354Z,6.93
2019-03-19T23:59:18.889Z,4.73
